sensor_id;sensor_type;location;lat;lon;timestamp;P1;durP1;ratioP1;P2;durP2;ratioP2
33138;SDS011;19501;50.948;5.316;2023-09-30T00:01:32;20.23;;;8.07;;
33138;SDS011;19501;50.948;5.316;2023-09-30T00:03:58;20.27;;;8.27;;
33138;SDS011;19501;50.948;5.316;2023-09-30T00:06:25;23.05;;;8.98;;
33138;SDS011;19501;50.948;5.316;2023-09-30T00:08:50;20.95;;;8.73;;
33138;SDS011;19501;50.948;5.316;2023-09-30T00:11:16;23.92;;;8.95;;
33138;SDS011;19501;50.948;5.316;2023-09-30T00:13:44;22.88;;;9.02;;
33138;SDS011;19501;50.948;5.316;2023-09-30T00:16:11;19.75;;;8.13;;
33138;SDS011;19501;50.948;5.316;2023-09-30T00:18:36;23.05;;;8.95;;
33138;SDS011;19501;50.948;5.316;2023-09-30T00:21:02;19.27;;;7.85;;
33138;SDS011;19501;50.948;5.316;2023-09-30T00:23:28;20.77;;;7.93;;
33138;SDS011;19501;50.948;5.316;2023-09-30T00:25:53;22.27;;;7.95;;
33138;SDS011;19501;50.948;5.316;2023-09-30T00:28:20;22.23;;;8.85;;
33138;SDS011;19501;50.948;5.316;2023-09-30T00:30:45;23.60;;;8.25;;
33138;SDS011;19501;50.948;5.316;2023-09-30T00:33:12;21.85;;;7.32;;
33138;SDS011;19501;50.948;5.316;2023-09-30T00:35:38;27.27;;;9.85;;
33138;SDS011;19501;50.948;5.316;2023-09-30T00:38:04;22.23;;;8.23;;
33138;SDS011;19501;50.948;5.316;2023-09-30T00:40:29;21.33;;;9.00;;
33138;SDS011;19501;50.948;5.316;2023-09-30T00:42:55;23.67;;;9.68;;
33138;SDS011;19501;50.948;5.316;2023-09-30T00:45:21;23.77;;;8.77;;
33138;SDS011;19501;50.948;5.316;2023-09-30T00:47:47;23.75;;;8.13;;
33138;SDS011;19501;50.948;5.316;2023-09-30T00:50:12;21.63;;;8.23;;
33138;SDS011;19501;50.948;5.316;2023-09-30T00:52:39;21.88;;;8.68;;
33138;SDS011;19501;50.948;5.316;2023-09-30T00:55:06;20.33;;;7.75;;
33138;SDS011;19501;50.948;5.316;2023-09-30T00:57:33;20.75;;;7.68;;
33138;SDS011;19501;50.948;5.316;2023-09-30T01:00:00;26.92;;;8.27;;
33138;SDS011;19501;50.948;5.316;2023-09-30T01:02:26;24.40;;;8.57;;
33138;SDS011;19501;50.948;5.316;2023-09-30T01:04:51;24.23;;;8.35;;
33138;SDS011;19501;50.948;5.316;2023-09-30T01:07:19;22.38;;;9.60;;
33138;SDS011;19501;50.948;5.316;2023-09-30T01:09:47;23.63;;;8.90;;
33138;SDS011;19501;50.948;5.316;2023-09-30T01:12:13;22.60;;;9.00;;
33138;SDS011;19501;50.948;5.316;2023-09-30T01:14:38;24.98;;;8.88;;
33138;SDS011;19501;50.948;5.316;2023-09-30T01:17:06;22.92;;;9.48;;
33138;SDS011;19501;50.948;5.316;2023-09-30T01:19:36;27.25;;;9.27;;
33138;SDS011;19501;50.948;5.316;2023-09-30T01:22:02;21.67;;;7.80;;
33138;SDS011;19501;50.948;5.316;2023-09-30T01:24:40;23.33;;;9.20;;
33138;SDS011;19501;50.948;5.316;2023-09-30T01:27:07;21.42;;;8.07;;
33138;SDS011;19501;50.948;5.316;2023-09-30T01:29:35;19.58;;;8.18;;
33138;SDS011;19501;50.948;5.316;2023-09-30T01:32:03;22.98;;;8.50;;
33138;SDS011;19501;50.948;5.316;2023-09-30T01:34:37;25.30;;;8.55;;
33138;SDS011;19501;50.948;5.316;2023-09-30T01:37:05;25.63;;;8.82;;
33138;SDS011;19501;50.948;5.316;2023-09-30T01:39:33;32.33;;;10.48;;
33138;SDS011;19501;50.948;5.316;2023-09-30T01:41:59;21.92;;;9.32;;
33138;SDS011;19501;50.948;5.316;2023-09-30T01:44:25;22.40;;;8.95;;
33138;SDS011;19501;50.948;5.316;2023-09-30T01:46:51;23.10;;;10.13;;
33138;SDS011;19501;50.948;5.316;2023-09-30T01:49:17;23.52;;;9.25;;
33138;SDS011;19501;50.948;5.316;2023-09-30T01:51:48;33.08;;;9.20;;
33138;SDS011;19501;50.948;5.316;2023-09-30T01:54:14;23.00;;;9.18;;
33138;SDS011;19501;50.948;5.316;2023-09-30T01:56:40;23.30;;;9.57;;
33138;SDS011;19501;50.948;5.316;2023-09-30T01:59:05;23.90;;;9.10;;
33138;SDS011;19501;50.948;5.316;2023-09-30T02:01:31;23.88;;;9.18;;
33138;SDS011;19501;50.948;5.316;2023-09-30T02:03:57;22.00;;;8.95;;
33138;SDS011;19501;50.948;5.316;2023-09-30T02:06:22;21.83;;;8.25;;
33138;SDS011;19501;50.948;5.316;2023-09-30T02:08:48;24.00;;;8.73;;
33138;SDS011;19501;50.948;5.316;2023-09-30T02:11:13;25.15;;;9.02;;
33138;SDS011;19501;50.948;5.316;2023-09-30T02:13:40;21.05;;;7.90;;
33138;SDS011;19501;50.948;5.316;2023-09-30T02:16:11;23.33;;;8.65;;
33138;SDS011;19501;50.948;5.316;2023-09-30T02:18:38;19.75;;;8.00;;
33138;SDS011;19501;50.948;5.316;2023-09-30T02:21:06;22.27;;;7.25;;
33138;SDS011;19501;50.948;5.316;2023-09-30T02:23:33;23.20;;;9.35;;
33138;SDS011;19501;50.948;5.316;2023-09-30T02:25:59;29.88;;;8.73;;
33138;SDS011;19501;50.948;5.316;2023-09-30T02:28:25;22.17;;;8.82;;
33138;SDS011;19501;50.948;5.316;2023-09-30T02:30:51;25.95;;;7.90;;
33138;SDS011;19501;50.948;5.316;2023-09-30T02:33:17;21.20;;;7.35;;
33138;SDS011;19501;50.948;5.316;2023-09-30T02:35:43;21.08;;;8.50;;
33138;SDS011;19501;50.948;5.316;2023-09-30T02:38:10;19.70;;;7.18;;
33138;SDS011;19501;50.948;5.316;2023-09-30T02:40:36;25.17;;;8.88;;
33138;SDS011;19501;50.948;5.316;2023-09-30T02:43:03;18.88;;;7.55;;
33138;SDS011;19501;50.948;5.316;2023-09-30T02:45:31;18.02;;;7.18;;
33138;SDS011;19501;50.948;5.316;2023-09-30T02:47:56;20.13;;;7.30;;
33138;SDS011;19501;50.948;5.316;2023-09-30T02:50:22;23.48;;;8.63;;
33138;SDS011;19501;50.948;5.316;2023-09-30T02:52:48;19.40;;;6.95;;
33138;SDS011;19501;50.948;5.316;2023-09-30T02:55:14;20.73;;;8.02;;
33138;SDS011;19501;50.948;5.316;2023-09-30T02:57:40;22.52;;;8.00;;
33138;SDS011;19501;50.948;5.316;2023-09-30T03:00:06;21.15;;;8.85;;
33138;SDS011;19501;50.948;5.316;2023-09-30T03:02:55;28.98;;;11.05;;
33138;SDS011;19501;50.948;5.316;2023-09-30T03:05:21;22.98;;;7.93;;
33138;SDS011;19501;50.948;5.316;2023-09-30T03:07:48;20.98;;;7.93;;
33138;SDS011;19501;50.948;5.316;2023-09-30T03:10:17;23.08;;;7.60;;
33138;SDS011;19501;50.948;5.316;2023-09-30T03:12:58;21.95;;;8.45;;
33138;SDS011;19501;50.948;5.316;2023-09-30T03:15:27;25.50;;;7.85;;
33138;SDS011;19501;50.948;5.316;2023-09-30T03:17:57;20.83;;;8.20;;
33138;SDS011;19501;50.948;5.316;2023-09-30T03:20:26;20.13;;;7.82;;
33138;SDS011;19501;50.948;5.316;2023-09-30T03:22:56;22.85;;;7.80;;
33138;SDS011;19501;50.948;5.316;2023-09-30T03:25:22;24.08;;;8.50;;
33138;SDS011;19501;50.948;5.316;2023-09-30T03:27:48;24.88;;;9.32;;
33138;SDS011;19501;50.948;5.316;2023-09-30T03:30:14;26.20;;;8.80;;
33138;SDS011;19501;50.948;5.316;2023-09-30T03:32:44;21.58;;;7.47;;
33138;SDS011;19501;50.948;5.316;2023-09-30T03:35:10;18.95;;;8.23;;
33138;SDS011;19501;50.948;5.316;2023-09-30T03:37:40;23.85;;;8.18;;
33138;SDS011;19501;50.948;5.316;2023-09-30T03:40:06;19.67;;;8.73;;
33138;SDS011;19501;50.948;5.316;2023-09-30T03:42:42;20.35;;;7.97;;
33138;SDS011;19501;50.948;5.316;2023-09-30T03:45:08;18.40;;;7.28;;
33138;SDS011;19501;50.948;5.316;2023-09-30T03:47:35;18.48;;;7.70;;
33138;SDS011;19501;50.948;5.316;2023-09-30T03:50:02;21.42;;;8.60;;
33138;SDS011;19501;50.948;5.316;2023-09-30T03:52:29;25.73;;;8.38;;
33138;SDS011;19501;50.948;5.316;2023-09-30T03:54:58;20.75;;;7.93;;
33138;SDS011;19501;50.948;5.316;2023-09-30T03:57:30;24.33;;;8.07;;
33138;SDS011;19501;50.948;5.316;2023-09-30T03:59:58;20.52;;;8.10;;
33138;SDS011;19501;50.948;5.316;2023-09-30T04:02:28;20.65;;;8.05;;
33138;SDS011;19501;50.948;5.316;2023-09-30T04:04:53;25.15;;;8.18;;
33138;SDS011;19501;50.948;5.316;2023-09-30T04:07:21;24.25;;;8.52;;
33138;SDS011;19501;50.948;5.316;2023-09-30T04:09:48;22.58;;;9.27;;
33138;SDS011;19501;50.948;5.316;2023-09-30T04:12:13;20.83;;;8.50;;
33138;SDS011;19501;50.948;5.316;2023-09-30T04:14:39;19.75;;;7.97;;
33138;SDS011;19501;50.948;5.316;2023-09-30T04:17:04;22.30;;;8.75;;
33138;SDS011;19501;50.948;5.316;2023-09-30T04:19:30;24.95;;;8.38;;
33138;SDS011;19501;50.948;5.316;2023-09-30T04:21:56;20.55;;;7.80;;
33138;SDS011;19501;50.948;5.316;2023-09-30T04:24:24;21.35;;;7.68;;
33138;SDS011;19501;50.948;5.316;2023-09-30T04:26:50;26.33;;;8.48;;
33138;SDS011;19501;50.948;5.316;2023-09-30T04:29:17;22.08;;;8.43;;
33138;SDS011;19501;50.948;5.316;2023-09-30T04:31:43;22.58;;;9.00;;
33138;SDS011;19501;50.948;5.316;2023-09-30T04:34:11;23.20;;;9.13;;
33138;SDS011;19501;50.948;5.316;2023-09-30T04:36:38;21.13;;;7.95;;
33138;SDS011;19501;50.948;5.316;2023-09-30T04:39:04;22.77;;;9.40;;
33138;SDS011;19501;50.948;5.316;2023-09-30T04:41:30;25.17;;;8.63;;
33138;SDS011;19501;50.948;5.316;2023-09-30T04:43:56;20.90;;;7.95;;
33138;SDS011;19501;50.948;5.316;2023-09-30T04:46:21;18.55;;;7.03;;
33138;SDS011;19501;50.948;5.316;2023-09-30T04:48:48;23.58;;;8.93;;
33138;SDS011;19501;50.948;5.316;2023-09-30T04:51:17;21.55;;;8.18;;
33138;SDS011;19501;50.948;5.316;2023-09-30T04:53:44;20.20;;;7.90;;
33138;SDS011;19501;50.948;5.316;2023-09-30T04:56:13;26.45;;;8.57;;
33138;SDS011;19501;50.948;5.316;2023-09-30T04:58:38;23.95;;;7.88;;
33138;SDS011;19501;50.948;5.316;2023-09-30T05:01:04;21.40;;;8.07;;
33138;SDS011;19501;50.948;5.316;2023-09-30T05:03:33;21.00;;;8.20;;
33138;SDS011;19501;50.948;5.316;2023-09-30T05:06:00;20.95;;;8.25;;
33138;SDS011;19501;50.948;5.316;2023-09-30T05:08:26;21.50;;;7.90;;
33138;SDS011;19501;50.948;5.316;2023-09-30T05:10:53;20.45;;;7.60;;
33138;SDS011;19501;50.948;5.316;2023-09-30T05:13:22;25.63;;;8.63;;
33138;SDS011;19501;50.948;5.316;2023-09-30T05:15:51;23.70;;;8.07;;
33138;SDS011;19501;50.948;5.316;2023-09-30T05:18:17;20.58;;;8.57;;
33138;SDS011;19501;50.948;5.316;2023-09-30T05:20:45;18.23;;;7.20;;
33138;SDS011;19501;50.948;5.316;2023-09-30T05:23:14;21.45;;;7.97;;
33138;SDS011;19501;50.948;5.316;2023-09-30T05:25:40;20.00;;;8.02;;
33138;SDS011;19501;50.948;5.316;2023-09-30T05:28:07;20.98;;;8.07;;
33138;SDS011;19501;50.948;5.316;2023-09-30T05:30:34;19.05;;;6.97;;
33138;SDS011;19501;50.948;5.316;2023-09-30T05:33:00;17.55;;;6.68;;
33138;SDS011;19501;50.948;5.316;2023-09-30T05:35:26;18.88;;;7.07;;
33138;SDS011;19501;50.948;5.316;2023-09-30T05:37:55;22.63;;;7.43;;
33138;SDS011;19501;50.948;5.316;2023-09-30T05:40:21;20.60;;;7.78;;
33138;SDS011;19501;50.948;5.316;2023-09-30T05:42:47;19.60;;;7.43;;
33138;SDS011;19501;50.948;5.316;2023-09-30T05:45:16;20.95;;;8.48;;
33138;SDS011;19501;50.948;5.316;2023-09-30T05:47:42;23.30;;;7.60;;
33138;SDS011;19501;50.948;5.316;2023-09-30T05:50:10;21.80;;;7.78;;
33138;SDS011;19501;50.948;5.316;2023-09-30T05:52:40;22.48;;;7.55;;
33138;SDS011;19501;50.948;5.316;2023-09-30T05:55:07;20.20;;;7.80;;
33138;SDS011;19501;50.948;5.316;2023-09-30T05:57:32;22.27;;;8.18;;
33138;SDS011;19501;50.948;5.316;2023-09-30T05:59:58;18.83;;;7.43;;
33138;SDS011;19501;50.948;5.316;2023-09-30T06:02:24;18.17;;;7.25;;
33138;SDS011;19501;50.948;5.316;2023-09-30T06:04:50;21.13;;;8.10;;
33138;SDS011;19501;50.948;5.316;2023-09-30T06:07:18;20.95;;;7.90;;
33138;SDS011;19501;50.948;5.316;2023-09-30T06:09:45;18.65;;;7.00;;
33138;SDS011;19501;50.948;5.316;2023-09-30T06:12:13;19.05;;;6.28;;
33138;SDS011;19501;50.948;5.316;2023-09-30T06:14:39;23.58;;;7.88;;
33138;SDS011;19501;50.948;5.316;2023-09-30T06:17:06;21.13;;;7.68;;
33138;SDS011;19501;50.948;5.316;2023-09-30T06:19:32;22.88;;;8.73;;
33138;SDS011;19501;50.948;5.316;2023-09-30T06:21:57;23.67;;;9.13;;
33138;SDS011;19501;50.948;5.316;2023-09-30T06:24:26;25.98;;;9.70;;
33138;SDS011;19501;50.948;5.316;2023-09-30T06:26:54;25.27;;;9.88;;
33138;SDS011;19501;50.948;5.316;2023-09-30T06:29:19;25.00;;;9.43;;
33138;SDS011;19501;50.948;5.316;2023-09-30T06:31:45;25.15;;;10.75;;
33138;SDS011;19501;50.948;5.316;2023-09-30T06:34:11;26.10;;;10.07;;
33138;SDS011;19501;50.948;5.316;2023-09-30T06:36:37;25.42;;;10.00;;
33138;SDS011;19501;50.948;5.316;2023-09-30T06:39:03;26.10;;;10.23;;
33138;SDS011;19501;50.948;5.316;2023-09-30T06:41:30;26.83;;;11.38;;
33138;SDS011;19501;50.948;5.316;2023-09-30T06:43:56;27.65;;;11.93;;
33138;SDS011;19501;50.948;5.316;2023-09-30T06:46:22;25.35;;;9.80;;
33138;SDS011;19501;50.948;5.316;2023-09-30T06:48:49;27.15;;;11.68;;
33138;SDS011;19501;50.948;5.316;2023-09-30T06:51:17;30.70;;;14.48;;
33138;SDS011;19501;50.948;5.316;2023-09-30T06:53:43;30.25;;;13.63;;
33138;SDS011;19501;50.948;5.316;2023-09-30T06:56:09;34.50;;;16.42;;
33138;SDS011;19501;50.948;5.316;2023-09-30T06:58:34;38.13;;;17.52;;
33138;SDS011;19501;50.948;5.316;2023-09-30T07:01:00;36.45;;;17.52;;
33138;SDS011;19501;50.948;5.316;2023-09-30T07:03:26;37.53;;;16.42;;
33138;SDS011;19501;50.948;5.316;2023-09-30T07:05:52;34.67;;;16.77;;
33138;SDS011;19501;50.948;5.316;2023-09-30T07:08:19;46.03;;;18.17;;
33138;SDS011;19501;50.948;5.316;2023-09-30T07:10:46;41.45;;;18.95;;
33138;SDS011;19501;50.948;5.316;2023-09-30T07:13:14;50.42;;;20.92;;
33138;SDS011;19501;50.948;5.316;2023-09-30T07:15:43;39.88;;;19.20;;
33138;SDS011;19501;50.948;5.316;2023-09-30T07:18:09;42.72;;;21.38;;
33138;SDS011;19501;50.948;5.316;2023-09-30T07:20:34;42.22;;;20.98;;
33138;SDS011;19501;50.948;5.316;2023-09-30T07:23:00;42.90;;;20.65;;
33138;SDS011;19501;50.948;5.316;2023-09-30T07:25:26;45.15;;;22.60;;
33138;SDS011;19501;50.948;5.316;2023-09-30T07:27:52;44.83;;;21.80;;
33138;SDS011;19501;50.948;5.316;2023-09-30T07:30:18;45.60;;;24.73;;
33138;SDS011;19501;50.948;5.316;2023-09-30T07:32:44;47.50;;;23.17;;
33138;SDS011;19501;50.948;5.316;2023-09-30T07:35:10;49.53;;;25.77;;
33138;SDS011;19501;50.948;5.316;2023-09-30T07:37:39;48.67;;;23.42;;
33138;SDS011;19501;50.948;5.316;2023-09-30T07:40:05;54.00;;;23.42;;
33138;SDS011;19501;50.948;5.316;2023-09-30T07:42:31;43.00;;;21.85;;
33138;SDS011;19501;50.948;5.316;2023-09-30T07:44:58;48.20;;;22.52;;
33138;SDS011;19501;50.948;5.316;2023-09-30T07:47:24;59.72;;;25.08;;
33138;SDS011;19501;50.948;5.316;2023-09-30T07:49:49;49.72;;;23.40;;
33138;SDS011;19501;50.948;5.316;2023-09-30T07:52:15;47.70;;;22.50;;
33138;SDS011;19501;50.948;5.316;2023-09-30T07:54:41;48.50;;;24.00;;
33138;SDS011;19501;50.948;5.316;2023-09-30T07:57:07;59.65;;;25.08;;
33138;SDS011;19501;50.948;5.316;2023-09-30T07:59:34;51.58;;;22.50;;
33138;SDS011;19501;50.948;5.316;2023-09-30T08:02:01;54.75;;;23.60;;
33138;SDS011;19501;50.948;5.316;2023-09-30T08:04:29;54.13;;;24.73;;
33138;SDS011;19501;50.948;5.316;2023-09-30T08:06:56;52.90;;;24.75;;
33138;SDS011;19501;50.948;5.316;2023-09-30T08:09:22;52.75;;;25.52;;
33138;SDS011;19501;50.948;5.316;2023-09-30T08:11:49;55.92;;;25.77;;
33138;SDS011;19501;50.948;5.316;2023-09-30T08:14:15;52.53;;;24.52;;
33138;SDS011;19501;50.948;5.316;2023-09-30T08:16:41;56.40;;;24.70;;
33138;SDS011;19501;50.948;5.316;2023-09-30T08:19:08;57.47;;;26.60;;
33138;SDS011;19501;50.948;5.316;2023-09-30T08:21:34;55.05;;;26.88;;
33138;SDS011;19501;50.948;5.316;2023-09-30T08:23:59;55.90;;;25.00;;
33138;SDS011;19501;50.948;5.316;2023-09-30T08:26:26;51.70;;;24.40;;
33138;SDS011;19501;50.948;5.316;2023-09-30T08:28:52;54.05;;;26.15;;
33138;SDS011;19501;50.948;5.316;2023-09-30T08:31:18;51.38;;;25.73;;
33138;SDS011;19501;50.948;5.316;2023-09-30T08:33:44;47.05;;;23.20;;
33138;SDS011;19501;50.948;5.316;2023-09-30T08:36:11;50.92;;;25.30;;
33138;SDS011;19501;50.948;5.316;2023-09-30T08:38:37;65.00;;;26.02;;
33138;SDS011;19501;50.948;5.316;2023-09-30T08:41:04;45.65;;;22.08;;
33138;SDS011;19501;50.948;5.316;2023-09-30T08:43:30;47.00;;;23.38;;
33138;SDS011;19501;50.948;5.316;2023-09-30T08:45:57;47.35;;;23.48;;
33138;SDS011;19501;50.948;5.316;2023-09-30T08:48:25;46.22;;;22.58;;
33138;SDS011;19501;50.948;5.316;2023-09-30T08:50:55;43.47;;;21.65;;
33138;SDS011;19501;50.948;5.316;2023-09-30T08:53:22;45.65;;;22.17;;
33138;SDS011;19501;50.948;5.316;2023-09-30T08:55:48;46.90;;;23.63;;
33138;SDS011;19501;50.948;5.316;2023-09-30T08:58:19;46.08;;;23.08;;
33138;SDS011;19501;50.948;5.316;2023-09-30T09:00:48;47.53;;;23.25;;
33138;SDS011;19501;50.948;5.316;2023-09-30T09:03:14;43.95;;;21.42;;
33138;SDS011;19501;50.948;5.316;2023-09-30T09:05:39;50.03;;;24.23;;
33138;SDS011;19501;50.948;5.316;2023-09-30T09:08:05;47.13;;;22.60;;
33138;SDS011;19501;50.948;5.316;2023-09-30T09:10:31;49.53;;;24.08;;
33138;SDS011;19501;50.948;5.316;2023-09-30T09:12:57;50.42;;;23.98;;
33138;SDS011;19501;50.948;5.316;2023-09-30T09:15:25;46.83;;;23.15;;
33138;SDS011;19501;50.948;5.316;2023-09-30T09:17:53;43.78;;;22.88;;
33138;SDS011;19501;50.948;5.316;2023-09-30T09:20:22;47.47;;;23.15;;
33138;SDS011;19501;50.948;5.316;2023-09-30T09:22:54;44.10;;;23.25;;
33138;SDS011;19501;50.948;5.316;2023-09-30T09:25:24;49.25;;;23.75;;
33138;SDS011;19501;50.948;5.316;2023-09-30T09:27:50;45.45;;;22.08;;
33138;SDS011;19501;50.948;5.316;2023-09-30T09:32:58;44.47;;;21.55;;
33138;SDS011;19501;50.948;5.316;2023-09-30T09:35:25;41.70;;;21.23;;
33138;SDS011;19501;50.948;5.316;2023-09-30T09:40:28;37.85;;;19.85;;
33138;SDS011;19501;50.948;5.316;2023-09-30T09:42:56;37.22;;;18.45;;
33138;SDS011;19501;50.948;5.316;2023-09-30T09:45:24;37.58;;;18.80;;
33138;SDS011;19501;50.948;5.316;2023-09-30T09:47:51;33.30;;;18.17;;
33138;SDS011;19501;50.948;5.316;2023-09-30T09:50:18;35.03;;;19.20;;
33138;SDS011;19501;50.948;5.316;2023-09-30T09:52:54;36.13;;;18.67;;
33138;SDS011;19501;50.948;5.316;2023-09-30T09:55:24;32.80;;;17.13;;
33138;SDS011;19501;50.948;5.316;2023-09-30T09:57:52;38.00;;;19.23;;
33138;SDS011;19501;50.948;5.316;2023-09-30T10:00:20;33.22;;;18.00;;
33138;SDS011;19501;50.948;5.316;2023-09-30T10:02:48;32.35;;;17.95;;
33138;SDS011;19501;50.948;5.316;2023-09-30T10:05:15;33.25;;;16.23;;
33138;SDS011;19501;50.948;5.316;2023-09-30T10:07:46;33.33;;;17.52;;
33138;SDS011;19501;50.948;5.316;2023-09-30T10:10:16;34.88;;;18.23;;
33138;SDS011;19501;50.948;5.316;2023-09-30T10:12:45;32.80;;;17.92;;
33138;SDS011;19501;50.948;5.316;2023-09-30T10:18:03;33.63;;;18.13;;
33138;SDS011;19501;50.948;5.316;2023-09-30T10:20:33;33.97;;;16.55;;
33138;SDS011;19501;50.948;5.316;2023-09-30T10:23:42;35.42;;;17.77;;
33138;SDS011;19501;50.948;5.316;2023-09-30T10:25:51;30.75;;;17.45;;
33138;SDS011;19501;50.948;5.316;2023-09-30T10:31:19;28.63;;;15.32;;
33138;SDS011;19501;50.948;5.316;2023-09-30T10:36:37;30.17;;;16.75;;
33138;SDS011;19501;50.948;5.316;2023-09-30T10:39:04;31.50;;;17.08;;
33138;SDS011;19501;50.948;5.316;2023-09-30T10:46:59;30.50;;;16.13;;
33138;SDS011;19501;50.948;5.316;2023-09-30T10:49:46;29.23;;;16.60;;
33138;SDS011;19501;50.948;5.316;2023-09-30T10:52:12;30.83;;;17.17;;
33138;SDS011;19501;50.948;5.316;2023-09-30T10:54:48;32.42;;;16.17;;
33138;SDS011;19501;50.948;5.316;2023-09-30T10:57:15;28.88;;;15.18;;
33138;SDS011;19501;50.948;5.316;2023-09-30T11:00:07;25.75;;;14.80;;
33138;SDS011;19501;50.948;5.316;2023-09-30T11:02:47;27.63;;;13.80;;
33138;SDS011;19501;50.948;5.316;2023-09-30T11:05:17;26.10;;;13.95;;
33138;SDS011;19501;50.948;5.316;2023-09-30T11:07:44;29.13;;;14.73;;
33138;SDS011;19501;50.948;5.316;2023-09-30T11:10:15;25.52;;;13.95;;
33138;SDS011;19501;50.948;5.316;2023-09-30T11:12:53;26.70;;;12.68;;
33138;SDS011;19501;50.948;5.316;2023-09-30T11:15:22;23.90;;;11.57;;
33138;SDS011;19501;50.948;5.316;2023-09-30T11:17:51;25.70;;;12.63;;
33138;SDS011;19501;50.948;5.316;2023-09-30T11:20:20;26.45;;;12.40;;
33138;SDS011;19501;50.948;5.316;2023-09-30T11:22:46;24.00;;;11.57;;
33138;SDS011;19501;50.948;5.316;2023-09-30T11:25:16;23.65;;;11.50;;
33138;SDS011;19501;50.948;5.316;2023-09-30T11:27:46;28.85;;;13.48;;
33138;SDS011;19501;50.948;5.316;2023-09-30T11:30:12;25.48;;;11.18;;
33138;SDS011;19501;50.948;5.316;2023-09-30T11:32:38;25.55;;;11.88;;
33138;SDS011;19501;50.948;5.316;2023-09-30T11:35:25;23.48;;;10.50;;
33138;SDS011;19501;50.948;5.316;2023-09-30T11:37:50;24.08;;;11.70;;
33138;SDS011;19501;50.948;5.316;2023-09-30T11:40:18;21.60;;;10.30;;
33138;SDS011;19501;50.948;5.316;2023-09-30T11:43:06;23.52;;;10.73;;
33138;SDS011;19501;50.948;5.316;2023-09-30T11:45:37;26.80;;;11.40;;
33138;SDS011;19501;50.948;5.316;2023-09-30T11:48:05;23.92;;;9.85;;
33138;SDS011;19501;50.948;5.316;2023-09-30T11:50:48;23.27;;;10.65;;
33138;SDS011;19501;50.948;5.316;2023-09-30T11:53:19;23.35;;;11.32;;
33138;SDS011;19501;50.948;5.316;2023-09-30T11:55:45;24.13;;;11.20;;
33138;SDS011;19501;50.948;5.316;2023-09-30T11:58:11;24.52;;;11.13;;
33138;SDS011;19501;50.948;5.316;2023-09-30T12:00:44;24.92;;;12.38;;
33138;SDS011;19501;50.948;5.316;2023-09-30T12:03:09;22.35;;;9.50;;
33138;SDS011;19501;50.948;5.316;2023-09-30T12:05:35;23.08;;;10.57;;
33138;SDS011;19501;50.948;5.316;2023-09-30T12:08:02;21.65;;;10.13;;
33138;SDS011;19501;50.948;5.316;2023-09-30T12:10:27;24.65;;;9.52;;
33138;SDS011;19501;50.948;5.316;2023-09-30T12:12:53;22.80;;;9.50;;
33138;SDS011;19501;50.948;5.316;2023-09-30T12:15:19;22.92;;;8.57;;
33138;SDS011;19501;50.948;5.316;2023-09-30T12:17:49;19.20;;;7.65;;
33138;SDS011;19501;50.948;5.316;2023-09-30T12:20:15;19.48;;;7.53;;
33138;SDS011;19501;50.948;5.316;2023-09-30T12:22:42;23.75;;;8.50;;
33138;SDS011;19501;50.948;5.316;2023-09-30T12:25:08;18.73;;;7.93;;
33138;SDS011;19501;50.948;5.316;2023-09-30T12:27:34;20.02;;;7.50;;
33138;SDS011;19501;50.948;5.316;2023-09-30T12:29:59;19.70;;;8.40;;
33138;SDS011;19501;50.948;5.316;2023-09-30T12:32:25;18.63;;;7.53;;
33138;SDS011;19501;50.948;5.316;2023-09-30T12:34:52;18.40;;;8.63;;
33138;SDS011;19501;50.948;5.316;2023-09-30T12:37:20;20.65;;;8.30;;
33138;SDS011;19501;50.948;5.316;2023-09-30T12:39:46;18.13;;;7.28;;
33138;SDS011;19501;50.948;5.316;2023-09-30T12:42:12;18.02;;;6.72;;
33138;SDS011;19501;50.948;5.316;2023-09-30T12:44:39;16.80;;;7.78;;
33138;SDS011;19501;50.948;5.316;2023-09-30T12:47:05;17.52;;;7.22;;
33138;SDS011;19501;50.948;5.316;2023-09-30T12:49:31;19.23;;;7.80;;
33138;SDS011;19501;50.948;5.316;2023-09-30T12:51:59;18.10;;;7.50;;
33138;SDS011;19501;50.948;5.316;2023-09-30T12:54:26;18.15;;;7.13;;
33138;SDS011;19501;50.948;5.316;2023-09-30T12:56:52;19.13;;;6.88;;
33138;SDS011;19501;50.948;5.316;2023-09-30T12:59:20;20.67;;;8.13;;
33138;SDS011;19501;50.948;5.316;2023-09-30T13:01:50;19.60;;;7.25;;
33138;SDS011;19501;50.948;5.316;2023-09-30T13:04:16;18.38;;;6.65;;
33138;SDS011;19501;50.948;5.316;2023-09-30T13:06:43;17.98;;;7.05;;
33138;SDS011;19501;50.948;5.316;2023-09-30T13:09:10;15.13;;;6.20;;
33138;SDS011;19501;50.948;5.316;2023-09-30T13:11:37;16.70;;;6.68;;
33138;SDS011;19501;50.948;5.316;2023-09-30T13:14:03;16.33;;;6.53;;
33138;SDS011;19501;50.948;5.316;2023-09-30T13:16:29;19.45;;;7.57;;
33138;SDS011;19501;50.948;5.316;2023-09-30T13:18:59;17.23;;;7.03;;
33138;SDS011;19501;50.948;5.316;2023-09-30T13:21:26;16.35;;;6.60;;
33138;SDS011;19501;50.948;5.316;2023-09-30T13:23:51;17.33;;;6.07;;
33138;SDS011;19501;50.948;5.316;2023-09-30T13:26:19;15.02;;;5.57;;
33138;SDS011;19501;50.948;5.316;2023-09-30T13:28:45;15.48;;;6.30;;
33138;SDS011;19501;50.948;5.316;2023-09-30T13:31:10;20.02;;;7.50;;
33138;SDS011;19501;50.948;5.316;2023-09-30T13:33:36;17.10;;;6.60;;
33138;SDS011;19501;50.948;5.316;2023-09-30T13:36:01;16.52;;;6.15;;
33138;SDS011;19501;50.948;5.316;2023-09-30T13:38:30;18.60;;;6.53;;
33138;SDS011;19501;50.948;5.316;2023-09-30T13:40:55;17.13;;;6.70;;
33138;SDS011;19501;50.948;5.316;2023-09-30T13:43:21;16.88;;;6.50;;
33138;SDS011;19501;50.948;5.316;2023-09-30T13:45:47;17.67;;;6.38;;
33138;SDS011;19501;50.948;5.316;2023-09-30T13:48:13;16.30;;;6.07;;
33138;SDS011;19501;50.948;5.316;2023-09-30T13:50:39;17.33;;;6.32;;
33138;SDS011;19501;50.948;5.316;2023-09-30T13:53:04;15.93;;;6.15;;
33138;SDS011;19501;50.948;5.316;2023-09-30T13:55:33;15.50;;;5.57;;
33138;SDS011;19501;50.948;5.316;2023-09-30T13:58:03;15.95;;;6.93;;
33138;SDS011;19501;50.948;5.316;2023-09-30T14:00:29;16.65;;;6.00;;
33138;SDS011;19501;50.948;5.316;2023-09-30T14:02:54;14.70;;;6.15;;
33138;SDS011;19501;50.948;5.316;2023-09-30T14:05:23;17.17;;;6.50;;
33138;SDS011;19501;50.948;5.316;2023-09-30T14:07:48;17.00;;;5.93;;
33138;SDS011;19501;50.948;5.316;2023-09-30T14:10:14;16.48;;;6.10;;
33138;SDS011;19501;50.948;5.316;2023-09-30T14:12:40;19.02;;;6.68;;
33138;SDS011;19501;50.948;5.316;2023-09-30T14:15:06;17.95;;;6.88;;
33138;SDS011;19501;50.948;5.316;2023-09-30T14:17:32;18.23;;;6.68;;
33138;SDS011;19501;50.948;5.316;2023-09-30T14:20:00;18.85;;;7.03;;
33138;SDS011;19501;50.948;5.316;2023-09-30T14:22:25;15.85;;;6.38;;
33138;SDS011;19501;50.948;5.316;2023-09-30T14:24:52;15.45;;;6.25;;
33138;SDS011;19501;50.948;5.316;2023-09-30T14:27:17;15.98;;;6.60;;
33138;SDS011;19501;50.948;5.316;2023-09-30T14:29:45;17.50;;;6.53;;
33138;SDS011;19501;50.948;5.316;2023-09-30T14:32:11;16.90;;;5.82;;
33138;SDS011;19501;50.948;5.316;2023-09-30T14:34:36;19.80;;;6.68;;
33138;SDS011;19501;50.948;5.316;2023-09-30T14:37:02;17.50;;;6.32;;
33138;SDS011;19501;50.948;5.316;2023-09-30T14:39:28;16.70;;;6.20;;
33138;SDS011;19501;50.948;5.316;2023-09-30T14:41:56;17.17;;;5.68;;
33138;SDS011;19501;50.948;5.316;2023-09-30T14:44:21;17.05;;;5.78;;
33138;SDS011;19501;50.948;5.316;2023-09-30T14:46:48;18.27;;;6.22;;
33138;SDS011;19501;50.948;5.316;2023-09-30T14:49:14;16.55;;;7.07;;
33138;SDS011;19501;50.948;5.316;2023-09-30T14:51:40;20.27;;;7.05;;